createdAt,value
2023-05-21T00:01:44.024Z,12.00
2023-05-21T00:04:17.988Z,13.53
2023-05-21T00:06:52.542Z,13.30
2023-05-21T00:09:26.134Z,13.80
2023-05-21T00:12:00.189Z,13.77
2023-05-21T00:14:34.024Z,12.83
2023-05-21T00:17:08.886Z,13.70
2023-05-21T00:19:42.344Z,13.00
2023-05-21T00:22:16.290Z,13.10
2023-05-21T00:24:50.121Z,14.20
2023-05-21T00:27:23.092Z,12.70
2023-05-21T00:29:57.106Z,13.73
2023-05-21T00:32:30.684Z,14.13
2023-05-21T00:35:04.592Z,16.77
2023-05-21T00:37:38.503Z,13.37
2023-05-21T00:40:14.055Z,13.73
2023-05-21T00:42:48.444Z,13.80
2023-05-21T00:45:24.360Z,13.83
2023-05-21T00:47:58.566Z,11.43
2023-05-21T00:50:32.762Z,13.70
2023-05-21T00:53:09.713Z,13.63
2023-05-21T00:55:44.660Z,13.67
2023-05-21T00:58:18.661Z,12.97
2023-05-21T01:00:56.049Z,13.27
2023-05-21T01:03:30.818Z,13.83
2023-05-21T01:06:04.695Z,14.70
2023-05-21T01:08:41.064Z,12.40
2023-05-21T01:11:15.696Z,12.83
2023-05-21T01:13:51.615Z,15.47
2023-05-21T01:16:25.544Z,16.30
2023-05-21T01:18:59.906Z,12.97
2023-05-21T01:21:36.221Z,12.87
2023-05-21T01:24:10.697Z,13.67
2023-05-21T01:26:46.735Z,12.37
2023-05-21T01:29:20.627Z,12.93
2023-05-21T01:32:03.244Z,15.60
2023-05-21T01:34:46.526Z,12.53
2023-05-21T01:37:27.080Z,12.50
2023-05-21T01:40:10.442Z,12.73
2023-05-21T01:42:47.083Z,13.97
2023-05-21T01:45:23.905Z,11.97
2023-05-21T01:47:58.848Z,11.73
2023-05-21T01:50:34.005Z,14.33
2023-05-21T01:53:07.642Z,13.83
2023-05-21T01:55:42.366Z,12.03
2023-05-21T01:58:17.239Z,13.27
2023-05-21T02:00:52.081Z,12.97
2023-05-21T02:03:31.407Z,13.30
2023-05-21T02:06:06.599Z,12.40
2023-05-21T02:08:40.518Z,13.53
2023-05-21T02:11:14.823Z,11.13
2023-05-21T02:13:49.580Z,12.47
2023-05-21T02:16:23.849Z,13.23
2023-05-21T02:18:58.079Z,15.97
2023-05-21T02:21:32.432Z,13.33
2023-05-21T02:24:06.651Z,13.40
2023-05-21T02:26:40.316Z,13.93
2023-05-21T02:29:14.366Z,13.57
2023-05-21T02:31:48.335Z,11.77
2023-05-21T02:34:22.429Z,12.63
2023-05-21T02:36:56.357Z,13.43
2023-05-21T02:39:31.185Z,13.33
2023-05-21T02:42:05.489Z,12.50
2023-05-21T02:44:39.206Z,12.50
2023-05-21T02:47:12.995Z,12.03
2023-05-21T02:49:47.315Z,10.87
2023-05-21T02:52:22.270Z,14.17
2023-05-21T02:54:56.454Z,11.40
2023-05-21T02:57:29.406Z,11.93
2023-05-21T03:00:05.205Z,13.37
2023-05-21T03:02:39.780Z,13.07
2023-05-21T03:05:13.525Z,11.63
2023-05-21T03:07:47.134Z,12.40
2023-05-21T03:10:21.870Z,12.40
2023-05-21T03:12:55.597Z,12.50
2023-05-21T03:15:33.539Z,12.13
2023-05-21T03:18:07.099Z,12.07
2023-05-21T03:20:43.953Z,13.30
2023-05-21T03:23:17.397Z,14.33
2023-05-21T03:25:52.474Z,12.83
2023-05-21T03:28:26.706Z,13.80
2023-05-21T03:30:59.703Z,15.03
2023-05-21T03:33:50.170Z,13.33
2023-05-21T03:39:04.574Z,14.97
2023-05-21T03:41:40.147Z,13.27
2023-05-21T03:44:16.917Z,12.17
2023-05-21T03:46:57.882Z,13.03
2023-05-21T03:49:37.630Z,11.67
2023-05-21T03:52:12.406Z,13.70
2023-05-21T03:54:46.538Z,12.50
2023-05-21T03:57:20.208Z,14.20
2023-05-21T03:59:54.704Z,13.57
2023-05-21T04:02:28.842Z,13.90
2023-05-21T04:05:02.650Z,12.60
2023-05-21T04:07:38.505Z,12.67
2023-05-21T04:10:14.719Z,12.87
2023-05-21T04:12:49.316Z,12.37
2023-05-21T04:15:24.854Z,13.57
2023-05-21T04:17:59.033Z,14.17
2023-05-21T04:20:32.434Z,11.10
2023-05-21T04:23:06.099Z,13.63
2023-05-21T04:25:39.961Z,12.93
2023-05-21T04:28:14.310Z,11.50
2023-05-21T04:30:47.739Z,13.60
2023-05-21T04:33:22.900Z,13.03
2023-05-21T04:35:56.895Z,13.87
2023-05-21T04:38:31.515Z,13.23
2023-05-21T04:41:05.617Z,13.33
2023-05-21T04:43:44.252Z,11.93
2023-05-21T04:46:19.325Z,10.50
2023-05-21T04:48:53.774Z,12.37
2023-05-21T04:51:27.913Z,10.80
2023-05-21T04:54:01.606Z,12.87
2023-05-21T04:56:36.146Z,10.83
2023-05-21T04:59:10.249Z,11.83
2023-05-21T05:01:44.519Z,12.50
2023-05-21T05:04:18.522Z,13.20
2023-05-21T05:06:53.296Z,11.30
2023-05-21T05:09:27.423Z,10.93
2023-05-21T05:12:01.138Z,11.07
2023-05-21T05:14:34.946Z,9.63
2023-05-21T05:17:10.284Z,10.33
2023-05-21T05:19:43.973Z,12.57
2023-05-21T05:22:17.714Z,10.77
2023-05-21T05:24:52.100Z,11.40
2023-05-21T05:27:26.376Z,9.93
2023-05-21T05:30:01.195Z,10.77
2023-05-21T05:32:36.228Z,9.87
2023-05-21T05:35:13.031Z,10.40
2023-05-21T05:37:47.261Z,10.00
2023-05-21T05:40:21.673Z,10.73
2023-05-21T05:42:55.285Z,10.30
2023-05-21T05:45:29.254Z,9.20
2023-05-21T05:48:03.358Z,10.83
2023-05-21T05:50:38.086Z,9.60
2023-05-21T05:53:13.418Z,10.07
2023-05-21T05:55:47.373Z,10.67
2023-05-21T05:58:21.611Z,9.43
2023-05-21T06:01:03.194Z,10.18
2023-05-21T06:03:38.866Z,9.07
2023-05-21T06:06:18.452Z,11.57
2023-05-21T06:08:52.982Z,11.00
2023-05-21T06:11:26.597Z,9.63
2023-05-21T06:14:01.658Z,12.17
2023-05-21T06:16:37.416Z,9.30
2023-05-21T06:19:12.410Z,10.00
2023-05-21T06:21:47.745Z,9.03
2023-05-21T06:24:21.205Z,10.87
2023-05-21T06:26:55.918Z,9.63
2023-05-21T06:29:29.511Z,12.37
2023-05-21T06:32:03.612Z,8.77
2023-05-21T06:34:38.706Z,9.40
2023-05-21T06:37:12.827Z,10.47
2023-05-21T06:39:47.243Z,9.73
2023-05-21T06:42:21.256Z,9.40
2023-05-21T06:45:20.874Z,8.40
2023-05-21T06:47:57.725Z,10.40
2023-05-21T06:50:31.650Z,14.50
2023-05-21T06:53:05.469Z,10.90
2023-05-21T06:55:39.869Z,10.80
2023-05-21T06:58:31.435Z,8.70
2023-05-21T07:01:05.537Z,9.70
2023-05-21T07:03:41.155Z,9.93
2023-05-21T07:06:17.111Z,11.40
2023-05-21T07:08:50.843Z,9.83
2023-05-21T07:11:28.776Z,9.73
2023-05-21T07:14:04.109Z,9.43
2023-05-21T07:16:39.524Z,8.80
2023-05-21T07:19:13.881Z,10.40
2023-05-21T07:21:48.741Z,11.80
2023-05-21T07:24:22.743Z,9.80
2023-05-21T07:26:56.865Z,11.43
2023-05-21T07:29:30.914Z,7.80
2023-05-21T07:32:05.059Z,9.77
2023-05-21T07:34:39.135Z,11.00
2023-05-21T07:37:14.066Z,10.23
2023-05-21T07:39:47.912Z,10.00
2023-05-21T07:42:22.248Z,20.87
2023-05-21T07:44:56.261Z,9.03
2023-05-21T07:47:31.164Z,9.63
2023-05-21T07:50:05.513Z,9.10
2023-05-21T07:52:39.656Z,11.57
2023-05-21T07:55:14.213Z,11.33
2023-05-21T07:57:47.309Z,10.50
2023-05-21T08:00:26.751Z,8.50
2023-05-21T08:03:01.510Z,9.67
2023-05-21T08:05:36.756Z,10.00
2023-05-21T08:08:11.059Z,10.53
2023-05-21T08:10:45.365Z,9.73
2023-05-21T08:13:19.993Z,12.07
2023-05-21T08:15:54.773Z,8.57
2023-05-21T08:18:29.250Z,10.00
2023-05-21T08:21:04.764Z,9.50
2023-05-21T08:23:39.359Z,15.67
2023-05-21T08:26:13.318Z,8.33
2023-05-21T08:28:47.021Z,8.47
2023-05-21T08:31:21.584Z,7.70
2023-05-21T08:33:58.012Z,11.00
2023-05-21T08:36:43.570Z,14.30
2023-05-21T08:39:32.451Z,11.37
2023-05-21T08:42:22.653Z,11.47
2023-05-21T08:45:09.044Z,8.60
2023-05-21T08:47:44.991Z,14.33
2023-05-21T08:50:20.525Z,9.77
2023-05-21T08:52:56.496Z,10.30
2023-05-21T08:55:32.692Z,9.63
2023-05-21T08:58:07.868Z,9.60
2023-05-21T09:00:41.593Z,9.63
2023-05-21T09:03:16.896Z,10.30
2023-05-21T09:05:51.956Z,10.73
2023-05-21T09:08:32.844Z,8.77
2023-05-21T09:11:15.696Z,9.27
2023-05-21T09:13:56.753Z,9.95
2023-05-21T09:16:36.382Z,12.70
2023-05-21T09:19:10.407Z,9.00
2023-05-21T09:21:44.681Z,10.57
2023-05-21T09:24:22.803Z,9.17
2023-05-21T09:26:56.658Z,10.90
2023-05-21T09:29:31.570Z,9.13
2023-05-21T09:32:10.436Z,9.47
2023-05-21T09:34:46.532Z,9.55
2023-05-21T09:37:27.563Z,12.87
2023-05-21T09:42:36.308Z,8.17
2023-05-21T09:45:13.262Z,10.83
2023-05-21T09:47:48.309Z,9.50
2023-05-21T09:50:23.860Z,11.60
2023-05-21T09:52:58.652Z,7.97
2023-05-21T09:55:32.744Z,14.65
2023-05-21T09:58:06.138Z,13.23
2023-05-21T10:00:40.984Z,15.80
2023-05-21T10:03:17.195Z,15.50
2023-05-21T10:05:53.670Z,8.53
2023-05-21T10:08:33.022Z,12.27
2023-05-21T10:11:08.382Z,12.57
2023-05-21T10:13:45.551Z,10.50
2023-05-21T10:16:19.819Z,13.17
2023-05-21T10:18:55.595Z,8.57
2023-05-21T10:21:29.725Z,94.97
2023-05-21T10:24:06.671Z,189.23
2023-05-21T10:26:42.748Z,50.63
2023-05-21T10:29:19.900Z,26.70
2023-05-21T10:31:55.217Z,25.63
2023-05-21T10:34:29.689Z,21.43
2023-05-21T10:37:06.078Z,37.93
2023-05-21T10:39:41.967Z,50.80
2023-05-21T10:42:23.881Z,158.23
2023-05-21T10:45:09.974Z,297.63
2023-05-21T10:48:07.384Z,473.47
2023-05-21T10:51:10.855Z,343.43
2023-05-21T10:53:58.514Z,182.50
2023-05-21T10:56:40.586Z,32.63
2023-05-21T10:59:33.154Z,27.80
2023-05-21T11:02:07.975Z,17.17
2023-05-21T11:04:44.451Z,23.73
2023-05-21T11:07:24.666Z,129.93
2023-05-21T11:10:37.703Z,69.05
2023-05-21T11:13:15.088Z,22.30
2023-05-21T11:16:15.652Z,13.83
2023-05-21T11:19:07.708Z,10.80
2023-05-21T11:21:43.480Z,9.00
2023-05-21T11:24:22.154Z,54.23
2023-05-21T11:27:07.094Z,70.33
2023-05-21T11:29:45.701Z,1999.90
2023-05-21T11:32:20.915Z,1999.90
2023-05-21T11:34:55.291Z,812.77
2023-05-21T11:37:36.052Z,325.67
2023-05-21T11:40:26.347Z,164.30
2023-05-21T11:43:00.462Z,105.45
2023-05-21T11:45:36.081Z,50.90
2023-05-21T11:48:17.798Z,36.27
2023-05-21T11:50:52.319Z,29.40
2023-05-21T11:53:26.230Z,117.97
2023-05-21T11:56:00.317Z,232.90
2023-05-21T11:58:34.350Z,104.53
2023-05-21T12:01:08.768Z,29.00
2023-05-21T12:03:42.699Z,16.33
2023-05-21T12:06:17.688Z,14.10
2023-05-21T12:08:58.668Z,12.47
2023-05-21T12:11:32.594Z,12.98
2023-05-21T12:14:08.291Z,9.37
2023-05-21T12:16:42.972Z,10.00
2023-05-21T12:19:20.458Z,10.43
2023-05-21T12:21:54.465Z,10.10
2023-05-21T12:24:28.225Z,13.97
2023-05-21T12:27:02.874Z,9.10
2023-05-21T12:29:37.780Z,12.63
2023-05-21T12:32:14.856Z,11.93
2023-05-21T12:34:51.013Z,9.40
2023-05-21T12:37:26.795Z,16.00
2023-05-21T12:40:03.308Z,12.83
2023-05-21T12:42:40.304Z,9.87
2023-05-21T12:45:18.906Z,8.87
2023-05-21T12:47:56.594Z,9.43
2023-05-21T12:50:31.039Z,11.33
2023-05-21T12:53:05.522Z,10.33
2023-05-21T12:55:40.940Z,13.47
2023-05-21T12:58:17.388Z,11.10
2023-05-21T13:00:51.347Z,9.67
2023-05-21T13:03:27.725Z,12.47
2023-05-21T13:06:04.009Z,11.77
2023-05-21T13:08:37.412Z,9.43
2023-05-21T13:11:11.077Z,11.80
2023-05-21T13:13:44.123Z,11.07
2023-05-21T13:16:18.510Z,9.17
2023-05-21T13:18:52.286Z,11.57
2023-05-21T13:21:26.300Z,10.73
2023-05-21T13:24:00.343Z,7.90
2023-05-21T13:26:34.257Z,26.33
2023-05-21T13:29:08.151Z,18.13
2023-05-21T13:31:42.035Z,15.10
2023-05-21T13:34:15.823Z,14.70
2023-05-21T13:36:49.647Z,12.23
2023-05-21T13:39:26.931Z,22.57
2023-05-21T13:42:01.918Z,12.57
2023-05-21T13:44:36.909Z,9.70
2023-05-21T13:47:12.246Z,9.53
2023-05-21T13:49:46.341Z,10.50
2023-05-21T13:52:20.261Z,9.43
2023-05-21T13:54:54.025Z,7.70
2023-05-21T13:57:30.977Z,10.20
2023-05-21T14:00:05.044Z,11.97
2023-05-21T14:02:41.179Z,10.93
2023-05-21T14:05:16.063Z,12.00
2023-05-21T14:07:51.634Z,11.67
2023-05-21T14:10:25.965Z,11.20
2023-05-21T14:13:07.505Z,11.13
2023-05-21T14:15:50.094Z,7.90
2023-05-21T14:18:24.210Z,9.33
2023-05-21T14:20:58.334Z,15.73
2023-05-21T14:23:32.128Z,11.97
2023-05-21T14:26:06.709Z,11.23
2023-05-21T14:28:40.858Z,12.40
2023-05-21T14:31:15.087Z,11.87
2023-05-21T14:33:48.869Z,9.97
2023-05-21T14:36:23.089Z,10.20
2023-05-21T14:38:56.992Z,12.43
2023-05-21T14:41:31.459Z,11.30
2023-05-21T14:44:04.763Z,10.40
2023-05-21T14:46:38.636Z,9.33
2023-05-21T14:49:12.545Z,13.27
2023-05-21T14:51:47.826Z,12.50
2023-05-21T14:54:21.764Z,13.40
2023-05-21T14:56:55.927Z,9.50
2023-05-21T14:59:29.784Z,11.60
2023-05-21T15:02:04.073Z,9.17
2023-05-21T15:04:37.742Z,9.53
2023-05-21T15:07:11.892Z,10.43
2023-05-21T15:09:45.741Z,9.77
2023-05-21T15:12:19.832Z,8.37
2023-05-21T15:14:54.176Z,11.03
2023-05-21T15:17:27.726Z,10.00
2023-05-21T15:20:04.561Z,10.20
2023-05-21T15:22:38.821Z,8.90
2023-05-21T15:25:14.010Z,7.83
2023-05-21T15:27:50.401Z,8.97
2023-05-21T15:30:25.705Z,9.47
2023-05-21T15:32:59.870Z,7.70
2023-05-21T15:35:34.463Z,7.43
2023-05-21T15:38:08.128Z,12.63
2023-05-21T15:40:42.923Z,9.60
2023-05-21T15:43:16.901Z,8.73
2023-05-21T15:45:50.723Z,11.73
2023-05-21T15:48:24.229Z,9.40
2023-05-21T15:50:58.169Z,9.77
2023-05-21T15:53:32.183Z,8.70
2023-05-21T15:56:06.715Z,8.27
2023-05-21T15:58:41.439Z,9.83
2023-05-21T16:01:15.196Z,12.67
2023-05-21T16:03:49.213Z,10.80
2023-05-21T16:06:23.405Z,9.30
2023-05-21T16:08:57.473Z,11.83
2023-05-21T16:11:31.367Z,11.47
2023-05-21T16:14:05.171Z,11.33
2023-05-21T16:16:40.667Z,10.43
2023-05-21T16:19:14.921Z,12.57
2023-05-21T16:21:49.037Z,11.23
2023-05-21T16:24:22.594Z,13.30
2023-05-21T16:26:56.984Z,11.43
2023-05-21T16:29:31.182Z,12.70
2023-05-21T16:32:05.406Z,9.30
2023-05-21T16:34:38.801Z,14.43
2023-05-21T16:37:12.768Z,13.27
2023-05-21T16:39:46.650Z,12.30
2023-05-21T16:42:20.925Z,10.33
2023-05-21T16:44:54.617Z,8.30
2023-05-21T16:47:29.079Z,8.47
2023-05-21T16:50:02.906Z,10.37
2023-05-21T16:52:36.980Z,11.23
2023-05-21T16:55:12.469Z,10.03
2023-05-21T16:57:46.518Z,8.13
2023-05-21T17:00:22.736Z,9.37
2023-05-21T17:02:56.770Z,8.73
2023-05-21T17:05:31.082Z,9.70
2023-05-21T17:08:05.909Z,10.33
2023-05-21T17:10:40.248Z,8.77
2023-05-21T17:13:21.568Z,8.77
2023-05-21T17:15:57.101Z,11.07
2023-05-21T17:18:31.428Z,9.70
2023-05-21T17:21:05.801Z,9.37
2023-05-21T17:23:39.576Z,8.27
2023-05-21T17:26:14.285Z,11.33
2023-05-21T17:28:48.158Z,9.27
2023-05-21T17:31:22.209Z,10.50
2023-05-21T17:33:56.581Z,8.30
2023-05-21T17:36:32.353Z,8.17
2023-05-21T17:39:06.233Z,9.40
2023-05-21T17:41:40.977Z,8.83
2023-05-21T17:44:16.881Z,8.10
2023-05-21T17:46:52.840Z,8.57
2023-05-21T17:49:26.571Z,10.00
2023-05-21T17:52:03.292Z,6.20
2023-05-21T17:54:37.580Z,7.67
2023-05-21T17:57:11.384Z,8.33
2023-05-21T17:59:46.507Z,8.70
2023-05-21T18:02:20.506Z,8.83
2023-05-21T18:04:54.125Z,8.27
2023-05-21T18:07:27.969Z,8.10
2023-05-21T18:10:01.918Z,6.83
2023-05-21T18:12:37.374Z,7.90
2023-05-21T18:15:14.926Z,7.80
2023-05-21T18:17:49.179Z,8.57
2023-05-21T18:20:23.375Z,9.20
2023-05-21T18:22:57.287Z,8.00
2023-05-21T18:25:31.090Z,8.97
2023-05-21T18:28:04.324Z,9.87
2023-05-21T18:30:38.199Z,8.90
2023-05-21T18:33:12.782Z,7.13
2023-05-21T18:35:46.929Z,8.60
2023-05-21T18:38:21.345Z,8.30
2023-05-21T18:40:55.491Z,8.20
2023-05-21T18:43:28.574Z,7.70
2023-05-21T18:46:03.296Z,8.33
2023-05-21T18:48:37.287Z,7.70
2023-05-21T18:51:11.522Z,8.13
2023-05-21T18:53:46.104Z,8.30
2023-05-21T18:56:20.670Z,9.20
2023-05-21T18:58:54.041Z,10.50
2023-05-21T19:01:28.314Z,8.47
2023-05-21T19:04:02.607Z,12.73
2023-05-21T19:06:36.921Z,9.70
2023-05-21T19:09:10.614Z,11.00
2023-05-21T19:11:44.781Z,9.17
2023-05-21T19:14:20.621Z,11.50
2023-05-21T19:16:54.634Z,9.73
2023-05-21T19:19:28.858Z,12.27
2023-05-21T19:22:03.320Z,9.30
2023-05-21T19:24:38.696Z,8.40
2023-05-21T19:27:12.039Z,11.47
2023-05-21T19:29:47.477Z,10.63
2023-05-21T19:32:24.041Z,10.03
2023-05-21T19:34:57.622Z,11.30
2023-05-21T19:37:31.612Z,10.90
2023-05-21T19:40:06.302Z,8.53
2023-05-21T19:42:42.098Z,8.80
2023-05-21T19:45:17.957Z,8.90
2023-05-21T19:47:52.130Z,9.53
2023-05-21T19:50:28.930Z,9.83
2023-05-21T19:53:03.095Z,7.77
2023-05-21T19:55:37.867Z,8.27
2023-05-21T19:58:13.739Z,9.67
2023-05-21T20:00:48.627Z,9.83
2023-05-21T20:03:22.734Z,10.00
2023-05-21T20:05:57.444Z,10.77
2023-05-21T20:08:31.468Z,12.37
2023-05-21T20:11:05.359Z,11.97
2023-05-21T20:13:38.408Z,10.80
2023-05-21T20:16:13.511Z,10.20
2023-05-21T20:18:47.775Z,10.47
2023-05-21T20:21:21.793Z,9.07
2023-05-21T20:23:56.865Z,9.07
2023-05-21T20:26:35.085Z,16.63
2023-05-21T20:29:09.572Z,10.00
2023-05-21T20:31:43.368Z,9.10
2023-05-21T20:34:17.777Z,10.30
2023-05-21T20:36:52.482Z,9.47
2023-05-21T20:39:29.725Z,9.17
2023-05-21T20:42:06.655Z,11.70
2023-05-21T20:44:40.429Z,11.03
2023-05-21T20:47:14.022Z,9.93
2023-05-21T20:49:48.316Z,8.53
2023-05-21T20:52:24.106Z,9.20
2023-05-21T20:55:01.332Z,9.93
2023-05-21T20:57:34.656Z,8.90
2023-05-21T21:00:12.827Z,10.00
2023-05-21T21:02:47.388Z,10.93
2023-05-21T21:05:21.454Z,9.60
2023-05-21T21:07:56.053Z,10.77
2023-05-21T21:10:31.195Z,10.60
2023-05-21T21:13:07.292Z,10.43
2023-05-21T21:15:40.963Z,10.07
2023-05-21T21:18:15.111Z,7.80
2023-05-21T21:20:50.117Z,8.60
2023-05-21T21:23:26.829Z,11.33
2023-05-21T21:26:00.552Z,9.47
2023-05-21T21:28:33.342Z,9.43
2023-05-21T21:31:06.916Z,9.23
2023-05-21T21:33:40.683Z,9.20
2023-05-21T21:36:15.222Z,9.07
2023-05-21T21:38:48.810Z,10.80
2023-05-21T21:41:22.672Z,11.93
2023-05-21T21:43:56.328Z,10.23
2023-05-21T21:46:30.663Z,8.47
2023-05-21T21:49:04.663Z,8.43
2023-05-21T21:51:39.634Z,9.90
2023-05-21T21:54:14.002Z,8.13
2023-05-21T21:56:47.801Z,9.57
2023-05-21T21:59:22.495Z,8.13
2023-05-21T22:01:56.224Z,9.07
2023-05-21T22:04:30.787Z,10.63
2023-05-21T22:07:04.298Z,9.43
2023-05-21T22:09:37.642Z,8.43
2023-05-21T22:12:13.693Z,10.13
2023-05-21T22:14:47.709Z,9.10
2023-05-21T22:17:21.798Z,8.27
2023-05-21T22:19:56.336Z,7.97
2023-05-21T22:22:29.744Z,8.43
2023-05-21T22:25:03.456Z,7.53
2023-05-21T22:27:37.344Z,7.70
2023-05-21T22:30:14.777Z,7.13
2023-05-21T22:32:49.104Z,8.93
2023-05-21T22:35:23.077Z,8.87
2023-05-21T22:37:57.269Z,7.20
2023-05-21T22:40:31.214Z,7.93
2023-05-21T22:43:04.488Z,8.60
2023-05-21T22:45:38.589Z,8.27
2023-05-21T22:48:12.763Z,7.77
2023-05-21T22:50:47.585Z,8.10
2023-05-21T22:53:21.718Z,8.83
2023-05-21T22:55:55.338Z,9.20
2023-05-21T22:58:29.154Z,9.17
2023-05-21T23:01:02.934Z,8.30
2023-05-21T23:03:37.086Z,8.10
2023-05-21T23:06:10.971Z,7.43
2023-05-21T23:08:44.566Z,9.00
2023-05-21T23:11:18.711Z,8.03
2023-05-21T23:13:51.438Z,11.03
2023-05-21T23:16:25.797Z,7.27
2023-05-21T23:18:59.718Z,14.20
2023-05-21T23:21:33.996Z,8.20
2023-05-21T23:24:08.353Z,10.53
2023-05-21T23:26:42.261Z,9.00
2023-05-21T23:29:15.620Z,7.60
2023-05-21T23:31:50.076Z,7.67
2023-05-21T23:34:25.004Z,10.03
2023-05-21T23:37:00.480Z,8.67
2023-05-21T23:39:34.167Z,8.93
2023-05-21T23:42:09.568Z,8.17
2023-05-21T23:44:42.952Z,8.53
2023-05-21T23:47:17.383Z,8.20
2023-05-21T23:49:51.106Z,8.27
2023-05-21T23:52:25.483Z,9.37
2023-05-21T23:54:59.337Z,9.93
2023-05-21T23:57:33.213Z,8.23
